sensor_id;sensor_type;location;lat;lon;timestamp;pressure;altitude;pressure_sealevel;temperature;humidity
11487;BME280;10510;47.942;9.442;2023-04-22T00:01:11;94004.41;;;8.41;100.00
11487;BME280;10510;47.942;9.442;2023-04-22T00:03:11;93998.59;;;8.39;100.00
11487;BME280;10510;47.942;9.442;2023-04-22T00:05:13;94007.19;;;8.39;100.00
11487;BME280;10510;47.942;9.442;2023-04-22T00:07:14;94002.34;;;8.36;100.00
11487;BME280;10510;47.942;9.442;2023-04-22T00:09:14;94004.50;;;8.33;100.00
11487;BME280;10510;47.942;9.442;2023-04-22T00:11:15;94003.66;;;8.32;100.00
11487;BME280;10510;47.942;9.442;2023-04-22T00:13:16;94011.84;;;8.29;100.00
11487;BME280;10510;47.942;9.442;2023-04-22T00:15:16;94013.06;;;8.27;100.00
11487;BME280;10510;47.942;9.442;2023-04-22T00:17:20;94008.81;;;8.26;100.00
11487;BME280;10510;47.942;9.442;2023-04-22T00:19:20;94013.06;;;8.27;100.00
11487;BME280;10510;47.942;9.442;2023-04-22T00:21:21;94010.44;;;8.27;100.00
11487;BME280;10510;47.942;9.442;2023-04-22T00:23:21;94005.63;;;8.24;100.00
11487;BME280;10510;47.942;9.442;2023-04-22T00:25:22;94009.56;;;8.19;100.00
11487;BME280;10510;47.942;9.442;2023-04-22T00:27:22;94012.72;;;8.15;100.00
11487;BME280;10510;47.942;9.442;2023-04-22T00:29:24;94004.44;;;8.11;100.00
11487;BME280;10510;47.942;9.442;2023-04-22T00:31:24;94005.97;;;8.06;100.00
11487;BME280;10510;47.942;9.442;2023-04-22T00:33:24;94009.16;;;8.01;100.00
11487;BME280;10510;47.942;9.442;2023-04-22T00:35:24;94005.91;;;7.99;100.00
11487;BME280;10510;47.942;9.442;2023-04-22T00:37:25;94008.72;;;7.97;100.00
11487;BME280;10510;47.942;9.442;2023-04-22T00:39:25;94006.91;;;7.98;100.00
11487;BME280;10510;47.942;9.442;2023-04-22T00:41:26;94002.69;;;7.97;100.00
11487;BME280;10510;47.942;9.442;2023-04-22T00:43:26;93997.47;;;7.97;100.00
11487;BME280;10510;47.942;9.442;2023-04-22T00:45:27;93999.28;;;7.96;100.00
11487;BME280;10510;47.942;9.442;2023-04-22T00:47:28;94003.03;;;7.94;100.00
11487;BME280;10510;47.942;9.442;2023-04-22T00:49:29;94000.66;;;7.92;100.00
11487;BME280;10510;47.942;9.442;2023-04-22T00:51:29;93995.00;;;7.89;100.00
11487;BME280;10510;47.942;9.442;2023-04-22T00:53:30;93996.97;;;7.87;100.00
11487;BME280;10510;47.942;9.442;2023-04-22T00:55:31;94000.56;;;7.86;100.00
11487;BME280;10510;47.942;9.442;2023-04-22T00:57:34;94000.75;;;7.84;100.00
11487;BME280;10510;47.942;9.442;2023-04-22T00:59:34;93998.50;;;7.81;100.00
11487;BME280;10510;47.942;9.442;2023-04-22T01:01:35;93999.66;;;7.79;100.00
11487;BME280;10510;47.942;9.442;2023-04-22T01:03:37;94002.09;;;7.80;100.00
11487;BME280;10510;47.942;9.442;2023-04-22T01:05:40;93999.50;;;7.80;100.00
11487;BME280;10510;47.942;9.442;2023-04-22T01:07:40;93990.69;;;7.81;100.00
11487;BME280;10510;47.942;9.442;2023-04-22T01:09:40;93992.50;;;7.81;100.00
11487;BME280;10510;47.942;9.442;2023-04-22T01:11:41;93992.66;;;7.79;100.00
11487;BME280;10510;47.942;9.442;2023-04-22T01:13:41;93988.28;;;7.80;100.00
11487;BME280;10510;47.942;9.442;2023-04-22T01:15:42;93980.84;;;7.77;100.00
11487;BME280;10510;47.942;9.442;2023-04-22T01:17:42;93988.81;;;7.75;100.00
11487;BME280;10510;47.942;9.442;2023-04-22T01:19:44;93996.63;;;7.75;100.00
11487;BME280;10510;47.942;9.442;2023-04-22T01:21:46;93995.19;;;7.72;100.00
11487;BME280;10510;47.942;9.442;2023-04-22T01:23:46;93998.72;;;7.65;100.00
11487;BME280;10510;47.942;9.442;2023-04-22T01:25:47;93994.75;;;7.54;100.00
11487;BME280;10510;47.942;9.442;2023-04-22T01:27:48;93992.69;;;7.49;100.00
11487;BME280;10510;47.942;9.442;2023-04-22T01:29:49;94003.28;;;7.48;100.00
11487;BME280;10510;47.942;9.442;2023-04-22T01:31:51;93994.69;;;7.47;100.00
11487;BME280;10510;47.942;9.442;2023-04-22T01:33:52;93995.47;;;7.48;100.00
11487;BME280;10510;47.942;9.442;2023-04-22T01:35:52;93998.25;;;7.46;100.00
11487;BME280;10510;47.942;9.442;2023-04-22T01:37:52;94000.03;;;7.46;100.00
11487;BME280;10510;47.942;9.442;2023-04-22T01:39:53;94001.84;;;7.45;100.00
11487;BME280;10510;47.942;9.442;2023-04-22T01:41:54;94002.00;;;7.44;100.00
11487;BME280;10510;47.942;9.442;2023-04-22T01:43:57;94001.41;;;7.42;100.00
11487;BME280;10510;47.942;9.442;2023-04-22T01:46:01;94006.78;;;7.40;100.00
11487;BME280;10510;47.942;9.442;2023-04-22T01:48:03;94009.56;;;7.39;100.00
11487;BME280;10510;47.942;9.442;2023-04-22T01:50:06;94003.56;;;7.38;100.00
11487;BME280;10510;47.942;9.442;2023-04-22T01:52:06;94014.56;;;7.40;100.00
11487;BME280;10510;47.942;9.442;2023-04-22T01:54:07;94006.97;;;7.39;100.00
11487;BME280;10510;47.942;9.442;2023-04-22T01:56:08;94004.97;;;7.41;100.00
11487;BME280;10510;47.942;9.442;2023-04-22T01:58:08;94004.16;;;7.40;100.00
11487;BME280;10510;47.942;9.442;2023-04-22T02:00:09;94004.97;;;7.41;100.00
11487;BME280;10510;47.942;9.442;2023-04-22T02:02:10;93994.94;;;7.38;100.00
11487;BME280;10510;47.942;9.442;2023-04-22T02:04:10;93996.91;;;7.36;100.00
11487;BME280;10510;47.942;9.442;2023-04-22T02:06:10;94005.69;;;7.35;100.00
11487;BME280;10510;47.942;9.442;2023-04-22T02:08:10;94002.28;;;7.34;100.00
11487;BME280;10510;47.942;9.442;2023-04-22T02:10:11;94002.47;;;7.33;100.00
11487;BME280;10510;47.942;9.442;2023-04-22T02:12:11;93999.03;;;7.32;100.00
11487;BME280;10510;47.942;9.442;2023-04-22T02:14:12;94001.19;;;7.28;100.00
11487;BME280;10510;47.942;9.442;2023-04-22T02:16:12;93995.56;;;7.25;100.00
11487;BME280;10510;47.942;9.442;2023-04-22T02:18:12;93990.72;;;7.22;100.00
11487;BME280;10510;47.942;9.442;2023-04-22T02:20:13;93995.47;;;7.18;100.00
11487;BME280;10510;47.942;9.442;2023-04-22T02:22:13;94004.44;;;7.16;100.00
11487;BME280;10510;47.942;9.442;2023-04-22T02:24:13;93996.19;;;7.12;100.00
11487;BME280;10510;47.942;9.442;2023-04-22T02:26:14;93991.34;;;7.09;100.00
11487;BME280;10510;47.942;9.442;2023-04-22T02:28:14;93996.91;;;7.06;100.00
11487;BME280;10510;47.942;9.442;2023-04-22T02:30:14;94006.00;;;7.02;100.00
11487;BME280;10510;47.942;9.442;2023-04-22T02:32:15;94011.28;;;6.94;100.00
11487;BME280;10510;47.942;9.442;2023-04-22T02:34:16;94002.56;;;6.87;100.00
11487;BME280;10510;47.942;9.442;2023-04-22T02:36:16;93998.53;;;6.84;100.00
11487;BME280;10510;47.942;9.442;2023-04-22T02:38:17;94005.69;;;6.82;100.00
11487;BME280;10510;47.942;9.442;2023-04-22T02:40:18;94003.44;;;6.79;100.00
11487;BME280;10510;47.942;9.442;2023-04-22T02:42:18;94008.84;;;6.77;100.00
11487;BME280;10510;47.942;9.442;2023-04-22T02:44:18;94004.34;;;6.71;100.00
11487;BME280;10510;47.942;9.442;2023-04-22T02:46:19;94008.44;;;6.66;100.00
11487;BME280;10510;47.942;9.442;2023-04-22T02:48:19;94003.75;;;6.61;100.00
11487;BME280;10510;47.942;9.442;2023-04-22T02:50:19;94008.34;;;6.59;100.00
11487;BME280;10510;47.942;9.442;2023-04-22T02:52:20;94005.09;;;6.57;100.00
11487;BME280;10510;47.942;9.442;2023-04-22T02:54:20;94004.28;;;6.56;100.00
11487;BME280;10510;47.942;9.442;2023-04-22T02:56:20;94006.09;;;6.56;100.00
11487;BME280;10510;47.942;9.442;2023-04-22T02:58:21;94006.88;;;6.56;100.00
11487;BME280;10510;47.942;9.442;2023-04-22T03:00:21;94011.59;;;6.53;100.00
11487;BME280;10510;47.942;9.442;2023-04-22T03:02:22;94014.88;;;6.47;100.00
11487;BME280;10510;47.942;9.442;2023-04-22T03:04:22;94007.44;;;6.44;100.00
11487;BME280;10510;47.942;9.442;2023-04-22T03:06:24;94017.03;;;6.43;100.00
11487;BME280;10510;47.942;9.442;2023-04-22T03:08:24;94014.63;;;6.42;100.00
11487;BME280;10510;47.942;9.442;2023-04-22T03:10:25;94017.22;;;6.42;100.00
11487;BME280;10510;47.942;9.442;2023-04-22T03:12:25;94021.13;;;6.37;100.00
11487;BME280;10510;47.942;9.442;2023-04-22T03:14:25;94022.44;;;6.33;100.00
11487;BME280;10510;47.942;9.442;2023-04-22T03:16:26;94025.91;;;6.26;100.00
11487;BME280;10510;47.942;9.442;2023-04-22T03:18:26;94023.84;;;6.21;100.00
11487;BME280;10510;47.942;9.442;2023-04-22T03:20:26;94016.53;;;6.17;100.00
11487;BME280;10510;47.942;9.442;2023-04-22T03:22:26;94010.72;;;6.14;100.00
11487;BME280;10510;47.942;9.442;2023-04-22T03:24:27;94019.03;;;6.10;100.00
11487;BME280;10510;47.942;9.442;2023-04-22T03:26:27;94011.59;;;6.07;100.00
11487;BME280;10510;47.942;9.442;2023-04-22T03:28:27;94010.94;;;6.05;100.00
11487;BME280;10510;47.942;9.442;2023-04-22T03:30:28;94018.06;;;6.03;100.00
11487;BME280;10510;47.942;9.442;2023-04-22T03:32:28;94016.81;;;5.99;100.00
11487;BME280;10510;47.942;9.442;2023-04-22T03:34:28;94020.53;;;5.96;100.00
11487;BME280;10510;47.942;9.442;2023-04-22T03:36:28;94024.28;;;5.94;100.00
11487;BME280;10510;47.942;9.442;2023-04-22T03:38:28;94025.56;;;5.89;100.00
11487;BME280;10510;47.942;9.442;2023-04-22T03:40:29;94025.72;;;5.88;100.00
11487;BME280;10510;47.942;9.442;2023-04-22T03:42:29;94022.69;;;5.84;100.00
11487;BME280;10510;47.942;9.442;2023-04-22T03:44:29;94024.00;;;5.80;100.00
11487;BME280;10510;47.942;9.442;2023-04-22T03:46:30;94020.94;;;5.77;100.00
11487;BME280;10510;47.942;9.442;2023-04-22T03:48:30;94029.88;;;5.74;100.00
11487;BME280;10510;47.942;9.442;2023-04-22T03:50:34;94026.16;;;5.68;100.00
11487;BME280;10510;47.942;9.442;2023-04-22T03:52:34;94034.41;;;5.64;100.00
11487;BME280;10510;47.942;9.442;2023-04-22T03:54:35;94033.16;;;5.60;100.00
11487;BME280;10510;47.942;9.442;2023-04-22T03:56:35;94034.28;;;5.57;100.00
11487;BME280;10510;47.942;9.442;2023-04-22T03:58:35;94034.63;;;5.54;100.00
11487;BME280;10510;47.942;9.442;2023-04-22T04:00:36;94033.34;;;5.50;100.00
11487;BME280;10510;47.942;9.442;2023-04-22T04:02:36;94025.88;;;5.47;100.00
11487;BME280;10510;47.942;9.442;2023-04-22T04:04:36;94026.06;;;5.45;100.00
11487;BME280;10510;47.942;9.442;2023-04-22T04:06:37;94030.44;;;5.45;100.00
11487;BME280;10510;47.942;9.442;2023-04-22T04:08:37;94023.97;;;5.41;100.00
11487;BME280;10510;47.942;9.442;2023-04-22T04:10:37;94022.53;;;5.38;100.00
11487;BME280;10510;47.942;9.442;2023-04-22T04:12:38;94026.25;;;5.36;100.00
11487;BME280;10510;47.942;9.442;2023-04-22T04:14:38;94029.81;;;5.35;100.00
11487;BME280;10510;47.942;9.442;2023-04-22T04:16:38;94027.56;;;5.32;100.00
11487;BME280;10510;47.942;9.442;2023-04-22T04:18:38;94023.50;;;5.29;100.00
11487;BME280;10510;47.942;9.442;2023-04-22T04:20:39;94026.44;;;5.26;100.00
11487;BME280;10510;47.942;9.442;2023-04-22T04:22:39;94018.03;;;5.24;100.00
11487;BME280;10510;47.942;9.442;2023-04-22T04:24:40;94019.97;;;5.22;100.00
11487;BME280;10510;47.942;9.442;2023-04-22T04:26:40;94022.72;;;5.20;100.00
11487;BME280;10510;47.942;9.442;2023-04-22T04:28:41;94019.50;;;5.18;100.00
11487;BME280;10510;47.942;9.442;2023-04-22T04:30:41;94017.06;;;5.17;100.00
11487;BME280;10510;47.942;9.442;2023-04-22T04:32:42;94017.06;;;5.17;100.00
11487;BME280;10510;47.942;9.442;2023-04-22T04:34:44;94010.94;;;5.18;100.00
11487;BME280;10510;47.942;9.442;2023-04-22T04:36:44;94017.06;;;5.17;100.00
11487;BME280;10510;47.942;9.442;2023-04-22T04:38:45;94024.84;;;5.17;100.00
11487;BME280;10510;47.942;9.442;2023-04-22T04:40:47;94021.28;;;5.18;100.00
11487;BME280;10510;47.942;9.442;2023-04-22T04:42:48;94019.31;;;5.20;100.00
11487;BME280;10510;47.942;9.442;2023-04-22T04:44:52;94021.75;;;5.21;100.00
11487;BME280;10510;47.942;9.442;2023-04-22T04:46:52;94018.03;;;5.24;100.00
11487;BME280;10510;47.942;9.442;2023-04-22T04:48:54;94014.31;;;5.27;100.00
11487;BME280;10510;47.942;9.442;2023-04-22T04:50:54;94023.69;;;5.28;100.00
11487;BME280;10510;47.942;9.442;2023-04-22T04:52:55;94017.84;;;5.26;100.00
11487;BME280;10510;47.942;9.442;2023-04-22T04:54:56;94019.31;;;5.28;100.00
11487;BME280;10510;47.942;9.442;2023-04-22T04:56:56;94021.91;;;5.28;100.00
11487;BME280;10510;47.942;9.442;2023-04-22T04:58:56;94015.72;;;5.29;100.00
11487;BME280;10510;47.942;9.442;2023-04-22T05:00:56;94018.00;;;5.32;100.00
11487;BME280;10510;47.942;9.442;2023-04-22T05:02:57;94017.66;;;5.35;100.00
11487;BME280;10510;47.942;9.442;2023-04-22T05:04:57;94023.97;;;5.41;100.00
11487;BME280;10510;47.942;9.442;2023-04-22T05:06:57;94025.25;;;5.45;100.00
11487;BME280;10510;47.942;9.442;2023-04-22T05:08:58;94024.75;;;5.50;100.00
11487;BME280;10510;47.942;9.442;2023-04-22T05:10:58;94038.53;;;5.50;100.00
11487;BME280;10510;47.942;9.442;2023-04-22T05:12:58;94040.81;;;5.45;100.00
11487;BME280;10510;47.942;9.442;2023-04-22T05:14:59;94041.94;;;5.42;100.00
11487;BME280;10510;47.942;9.442;2023-04-22T05:16:59;94037.75;;;5.41;100.00
11487;BME280;10510;47.942;9.442;2023-04-22T05:19:00;94035.16;;;5.41;100.00
11487;BME280;10510;47.942;9.442;2023-04-22T05:21:00;94047.13;;;5.42;100.00
11487;BME280;10510;47.942;9.442;2023-04-22T05:23:03;94055.22;;;5.47;100.00
11487;BME280;10510;47.942;9.442;2023-04-22T05:25:03;94050.19;;;5.54;100.00
11487;BME280;10510;47.942;9.442;2023-04-22T05:27:04;94047.22;;;5.65;100.00
11487;BME280;10510;47.942;9.442;2023-04-22T05:29:04;94036.84;;;5.74;100.00
11487;BME280;10510;47.942;9.442;2023-04-22T05:31:06;94037.59;;;5.82;100.00
11487;BME280;10510;47.942;9.442;2023-04-22T05:33:06;94042.44;;;5.94;100.00
11487;BME280;10510;47.942;9.442;2023-04-22T05:35:08;94044.00;;;6.03;100.00
11487;BME280;10510;47.942;9.442;2023-04-22T05:37:09;94053.09;;;6.07;100.00
11487;BME280;10510;47.942;9.442;2023-04-22T05:39:10;94053.84;;;6.16;100.00
11487;BME280;10510;47.942;9.442;2023-04-22T05:41:10;94048.44;;;6.25;100.00
11487;BME280;10510;47.942;9.442;2023-04-22T05:43:10;94045.47;;;6.36;100.00
11487;BME280;10510;47.942;9.442;2023-04-22T05:45:10;94046.03;;;6.47;100.00
11487;BME280;10510;47.942;9.442;2023-04-22T05:47:11;94053.63;;;6.56;100.00
11487;BME280;10510;47.942;9.442;2023-04-22T05:49:11;94054.03;;;6.68;100.00
11487;BME280;10510;47.942;9.442;2023-04-22T05:51:11;94048.94;;;6.75;100.00
11487;BME280;10510;47.942;9.442;2023-04-22T05:53:12;94053.88;;;6.85;100.00
11487;BME280;10510;47.942;9.442;2023-04-22T05:55:12;94056.88;;;6.96;100.00
11487;BME280;10510;47.942;9.442;2023-04-22T05:57:12;94053.88;;;7.08;100.00
11487;BME280;10510;47.942;9.442;2023-04-22T05:59:13;94056.06;;;7.19;100.00
11487;BME280;10510;47.942;9.442;2023-04-22T06:01:13;94060.63;;;7.32;100.00
11487;BME280;10510;47.942;9.442;2023-04-22T06:03:13;94058.06;;;7.46;100.00
11487;BME280;10510;47.942;9.442;2023-04-22T06:05:13;94060.66;;;7.61;100.00
11487;BME280;10510;47.942;9.442;2023-04-22T06:07:14;94064.78;;;7.70;100.00
11487;BME280;10510;47.942;9.442;2023-04-22T06:09:14;94060.50;;;7.78;100.00
11487;BME280;10510;47.942;9.442;2023-04-22T06:11:14;94060.06;;;7.89;100.00
11487;BME280;10510;47.942;9.442;2023-04-22T06:13:15;94060.28;;;7.94;100.00
11487;BME280;10510;47.942;9.442;2023-04-22T06:15:15;94055.09;;;7.94;100.00
11487;BME280;10510;47.942;9.442;2023-04-22T06:17:15;94059.59;;;8.00;100.00
11487;BME280;10510;47.942;9.442;2023-04-22T06:19:16;94062.28;;;8.07;100.00
11487;BME280;10510;47.942;9.442;2023-04-22T06:21:16;94061.53;;;8.13;100.00
11487;BME280;10510;47.942;9.442;2023-04-22T06:23:16;94063.84;;;8.23;100.00
11487;BME280;10510;47.942;9.442;2023-04-22T06:25:16;94066.78;;;8.34;100.00
11487;BME280;10510;47.942;9.442;2023-04-22T06:27:17;94056.94;;;8.45;100.00
11487;BME280;10510;47.942;9.442;2023-04-22T06:29:17;94056.44;;;8.56;100.00
11487;BME280;10510;47.942;9.442;2023-04-22T06:31:17;94059.19;;;8.69;100.00
11487;BME280;10510;47.942;9.442;2023-04-22T06:33:18;94057.94;;;8.86;100.00
11487;BME280;10510;47.942;9.442;2023-04-22T06:35:18;94056.50;;;9.05;100.00
11487;BME280;10510;47.942;9.442;2023-04-22T06:37:18;94062.69;;;9.26;100.00
11487;BME280;10510;47.942;9.442;2023-04-22T06:39:19;94058.81;;;9.43;100.00
11487;BME280;10510;47.942;9.442;2023-04-22T06:41:20;94061.97;;;9.67;100.00
11487;BME280;10510;47.942;9.442;2023-04-22T06:43:21;94057.09;;;9.92;100.00
11487;BME280;10510;47.942;9.442;2023-04-22T06:45:21;94052.19;;;10.17;100.00
11487;BME280;10510;47.942;9.442;2023-04-22T06:47:21;94057.13;;;10.40;100.00
11487;BME280;10510;47.942;9.442;2023-04-22T06:49:22;94051.59;;;10.63;100.00
11487;BME280;10510;47.942;9.442;2023-04-22T06:51:22;94040.34;;;10.82;100.00
11487;BME280;10510;47.942;9.442;2023-04-22T06:53:22;94035.94;;;11.03;100.00
11487;BME280;10510;47.942;9.442;2023-04-22T06:55:23;94040.59;;;11.34;100.00
11487;BME280;10510;47.942;9.442;2023-04-22T06:57:23;94043.81;;;11.56;100.00
11487;BME280;10510;47.942;9.442;2023-04-22T06:59:23;94031.88;;;11.73;100.00
11487;BME280;10510;47.942;9.442;2023-04-22T07:01:24;94038.31;;;11.91;100.00
11487;BME280;10510;47.942;9.442;2023-04-22T07:03:24;94030.44;;;11.97;100.00
11487;BME280;10510;47.942;9.442;2023-04-22T07:05:24;94032.25;;;12.03;100.00
11487;BME280;10510;47.942;9.442;2023-04-22T07:07:25;94035.03;;;12.09;100.00
11487;BME280;10510;47.942;9.442;2023-04-22T07:09:25;94032.19;;;12.17;100.00
11487;BME280;10510;47.942;9.442;2023-04-22T07:11:25;94032.16;;;12.30;100.00
11487;BME280;10510;47.942;9.442;2023-04-22T07:13:26;94029.28;;;12.38;100.00
11487;BME280;10510;47.942;9.442;2023-04-22T07:15:27;94027.22;;;12.47;100.00
11487;BME280;10510;47.942;9.442;2023-04-22T07:17:27;94023.97;;;12.52;100.00
11487;BME280;10510;47.942;9.442;2023-04-22T07:19:27;94022.75;;;12.54;100.00
11487;BME280;10510;47.942;9.442;2023-04-22T07:21:29;94018.50;;;12.60;100.00
11487;BME280;10510;47.942;9.442;2023-04-22T07:23:30;94019.47;;;12.65;100.00
11487;BME280;10510;47.942;9.442;2023-04-22T07:25:30;94032.34;;;12.67;100.00
11487;BME280;10510;47.942;9.442;2023-04-22T07:27:31;94035.81;;;12.61;100.00
11487;BME280;10510;47.942;9.442;2023-04-22T07:29:31;94042.88;;;12.60;100.00
11487;BME280;10510;47.942;9.442;2023-04-22T07:31:33;94045.69;;;12.65;100.00
11487;BME280;10510;47.942;9.442;2023-04-22T07:33:34;94052.91;;;12.70;100.00
11487;BME280;10510;47.942;9.442;2023-04-22T07:35:35;94055.72;;;12.75;100.00
11487;BME280;10510;47.942;9.442;2023-04-22T07:37:35;94056.88;;;12.86;100.00
11487;BME280;10510;47.942;9.442;2023-04-22T07:39:36;94054.31;;;13.04;100.00
11487;BME280;10510;47.942;9.442;2023-04-22T07:41:36;94063.28;;;13.22;100.00
11487;BME280;10510;47.942;9.442;2023-04-22T07:43:36;94058.34;;;13.38;100.00
11487;BME280;10510;47.942;9.442;2023-04-22T07:45:37;94066.25;;;13.57;100.00
11487;BME280;10510;47.942;9.442;2023-04-22T07:47:37;94067.09;;;13.76;100.00
11487;BME280;10510;47.942;9.442;2023-04-22T07:49:38;94068.50;;;13.97;100.00
11487;BME280;10510;47.942;9.442;2023-04-22T07:51:39;94065.53;;;14.12;100.00
11487;BME280;10510;47.942;9.442;2023-04-22T07:53:40;94068.38;;;14.28;100.00
11487;BME280;10510;47.942;9.442;2023-04-22T07:55:40;94062.38;;;14.40;100.00
11487;BME280;10510;47.942;9.442;2023-04-22T07:57:40;94074.00;;;14.32;100.00
11487;BME280;10510;47.942;9.442;2023-04-22T07:59:41;94068.53;;;14.15;100.00
11487;BME280;10510;47.942;9.442;2023-04-22T08:01:41;94071.44;;;14.25;100.00
11487;BME280;10510;47.942;9.442;2023-04-22T08:03:41;94068.16;;;14.48;100.00
11487;BME280;10510;47.942;9.442;2023-04-22T08:05:41;94067.75;;;14.51;100.00
11487;BME280;10510;47.942;9.442;2023-04-22T08:07:42;94065.38;;;14.62;100.00
11487;BME280;10510;47.942;9.442;2023-04-22T08:09:42;94058.97;;;14.88;100.00
11487;BME280;10510;47.942;9.442;2023-04-22T08:11:42;94073.44;;;15.09;100.00
11487;BME280;10510;47.942;9.442;2023-04-22T08:13:43;94070.22;;;15.37;100.00
11487;BME280;10510;47.942;9.442;2023-04-22T08:15:43;94067.59;;;15.60;100.00
11487;BME280;10510;47.942;9.442;2023-04-22T08:17:43;94060.66;;;15.78;100.00
11487;BME280;10510;47.942;9.442;2023-04-22T08:19:44;94067.19;;;16.10;100.00
11487;BME280;10510;47.942;9.442;2023-04-22T08:21:44;94062.09;;;16.44;100.00
11487;BME280;10510;47.942;9.442;2023-04-22T08:23:44;94063.78;;;16.62;100.00
11487;BME280;10510;47.942;9.442;2023-04-22T08:25:45;94071.72;;;16.91;100.00
11487;BME280;10510;47.942;9.442;2023-04-22T08:27:45;94059.47;;;17.30;100.00
11487;BME280;10510;47.942;9.442;2023-04-22T08:29:45;94061.59;;;17.79;100.00
11487;BME280;10510;47.942;9.442;2023-04-22T08:31:46;94058.66;;;18.14;100.00
11487;BME280;10510;47.942;9.442;2023-04-22T08:33:46;94051.91;;;18.23;100.00
11487;BME280;10510;47.942;9.442;2023-04-22T08:35:47;94035.72;;;18.64;100.00
11487;BME280;10510;47.942;9.442;2023-04-22T08:37:47;94029.31;;;19.03;100.00
11487;BME280;10510;47.942;9.442;2023-04-22T08:39:47;94016.09;;;19.36;100.00
11487;BME280;10510;47.942;9.442;2023-04-22T08:41:49;94025.69;;;19.74;100.00
11487;BME280;10510;47.942;9.442;2023-04-22T08:43:50;94024.50;;;19.97;100.00
11487;BME280;10510;47.942;9.442;2023-04-22T08:45:51;94027.06;;;20.29;100.00
11487;BME280;10510;47.942;9.442;2023-04-22T08:47:53;94021.66;;;20.61;100.00
11487;BME280;10510;47.942;9.442;2023-04-22T08:49:54;94026.78;;;20.83;100.00
11487;BME280;10510;47.942;9.442;2023-04-22T08:51:54;94027.88;;;21.08;100.00
11487;BME280;10510;47.942;9.442;2023-04-22T08:53:55;94037.00;;;21.43;100.00
11487;BME280;10510;47.942;9.442;2023-04-22T08:55:55;94045.00;;;21.68;100.00
11487;BME280;10510;47.942;9.442;2023-04-22T08:57:59;94044.44;;;21.92;100.00
11487;BME280;10510;47.942;9.442;2023-04-22T09:00:00;94034.84;;;22.27;100.00
11487;BME280;10510;47.942;9.442;2023-04-22T09:02:01;94042.41;;;22.59;100.00
11487;BME280;10510;47.942;9.442;2023-04-22T09:04:02;94042.22;;;22.50;100.00
11487;BME280;10510;47.942;9.442;2023-04-22T09:06:03;94042.22;;;22.40;100.00
11487;BME280;10510;47.942;9.442;2023-04-22T09:08:04;94041.97;;;22.41;100.00
11487;BME280;10510;47.942;9.442;2023-04-22T09:10:04;94045.38;;;22.47;100.00
11487;BME280;10510;47.942;9.442;2023-04-22T09:12:05;94047.41;;;22.76;100.00
11487;BME280;10510;47.942;9.442;2023-04-22T09:14:05;94048.34;;;22.40;100.00
11487;BME280;10510;47.942;9.442;2023-04-22T09:16:06;94042.53;;;22.03;100.00
11487;BME280;10510;47.942;9.442;2023-04-22T09:18:08;94038.28;;;22.27;100.00
11487;BME280;10510;47.942;9.442;2023-04-22T09:20:09;94040.66;;;22.34;100.00
11487;BME280;10510;47.942;9.442;2023-04-22T09:22:12;94034.50;;;22.43;100.00
11487;BME280;10510;47.942;9.442;2023-04-22T09:24:15;94035.19;;;22.75;100.00
11487;BME280;10510;47.942;9.442;2023-04-22T09:26:18;94019.91;;;22.90;100.00
11487;BME280;10510;47.942;9.442;2023-04-22T09:28:19;94017.47;;;23.04;100.00
11487;BME280;10510;47.942;9.442;2023-04-22T09:30:24;94014.25;;;23.12;100.00
11487;BME280;10510;47.942;9.442;2023-04-22T09:32:25;94019.00;;;23.16;100.00
11487;BME280;10510;47.942;9.442;2023-04-22T09:34:26;94019.94;;;23.35;100.00
11487;BME280;10510;47.942;9.442;2023-04-22T09:36:30;94023.50;;;23.60;100.00
11487;BME280;10510;47.942;9.442;2023-04-22T09:38:33;94035.41;;;23.67;100.00
11487;BME280;10510;47.942;9.442;2023-04-22T09:40:34;94034.09;;;23.65;100.00
11487;BME280;10510;47.942;9.442;2023-04-22T09:42:47;94022.44;;;23.55;100.00
11487;BME280;10510;47.942;9.442;2023-04-22T09:44:49;94028.44;;;23.42;100.00
11487;BME280;10510;47.942;9.442;2023-04-22T09:46:52;94019.66;;;23.37;100.00
11487;BME280;10510;47.942;9.442;2023-04-22T09:48:58;94027.03;;;23.50;100.00
11487;BME280;10510;47.942;9.442;2023-04-22T09:50:58;94019.53;;;23.52;100.00
11487;BME280;10510;47.942;9.442;2023-04-22T09:53:06;94019.47;;;23.62;100.00
11487;BME280;10510;47.942;9.442;2023-04-22T09:55:08;94015.91;;;23.77;100.00
11487;BME280;10510;47.942;9.442;2023-04-22T09:57:09;94016.56;;;23.93;100.00
11487;BME280;10510;47.942;9.442;2023-04-22T10:01:16;94026.09;;;24.28;100.00
11487;BME280;10510;47.942;9.442;2023-04-22T10:03:18;94025.91;;;24.48;100.00
11487;BME280;10510;47.942;9.442;2023-04-22T10:05:18;94019.59;;;24.63;100.00
11487;BME280;10510;47.942;9.442;2023-04-22T10:07:19;94016.50;;;24.75;100.00
11487;BME280;10510;47.942;9.442;2023-04-22T10:09:22;94007.53;;;24.85;100.00
11487;BME280;10510;47.942;9.442;2023-04-22T10:11:22;94016.50;;;24.75;100.00
11487;BME280;10510;47.942;9.442;2023-04-22T10:13:22;94007.53;;;24.85;100.00
11487;BME280;10510;47.942;9.442;2023-04-22T10:15:23;94015.25;;;24.67;100.00
11487;BME280;10510;47.942;9.442;2023-04-22T10:17:25;94015.91;;;24.59;100.00
11487;BME280;10510;47.942;9.442;2023-04-22T10:19:27;94017.69;;;24.64;100.00
11487;BME280;10510;47.942;9.442;2023-04-22T10:21:29;94005.34;;;24.92;100.00
11487;BME280;10510;47.942;9.442;2023-04-22T10:23:31;94002.72;;;25.06;100.00
11487;BME280;10510;47.942;9.442;2023-04-22T10:25:31;93998.78;;;25.03;100.00
11487;BME280;10510;47.942;9.442;2023-04-22T10:27:32;94001.34;;;24.89;100.00
11487;BME280;10510;47.942;9.442;2023-04-22T10:29:40;93995.34;;;24.79;100.00
11487;BME280;10510;47.942;9.442;2023-04-22T10:31:53;93993.09;;;24.67;100.00
11487;BME280;10510;47.942;9.442;2023-04-22T10:34:11;94001.25;;;24.76;100.00
11487;BME280;10510;47.942;9.442;2023-04-22T10:36:16;94001.72;;;24.83;100.00
11487;BME280;10510;47.942;9.442;2023-04-22T10:38:18;94001.88;;;25.10;100.00
11487;BME280;10510;47.942;9.442;2023-04-22T10:40:18;93999.47;;;25.09;100.00